METAR Data
IDs: Format: Raw Decoded Include TAF

Data at: 0149 UTC 25 Feb 2021

LATI 250120Z VRB02KT CAVOK 07/06 Q1030 NOSIG